Time;durP1;ratioP1;P1;durP2;ratioP2;P2;SDS_P1;SDS_P2;PMS_P1;PMS_P2;Temp;Humidity;BMP_temperature;BMP_pressure;BME280_temperature;BME280_humidity;BME280_pressure;Samples;Min_cycle;Max_cycle;Signal;HPM_P1;HPM_P2
2024/03/14 00:00:52;;;;;;;4.78;1.90;;;;;;;;;;2043163;28;20075;-49
2024/03/14 00:01:53;;;;;;;10.18;2.10;;;;;;;;;;2046797;28;20023;-49
2024/03/14 00:02:54;;;;;;;4.70;2.60;;;;;;;;;;2047425;28;20074;-50
2024/03/14 00:03:56;;;;;;;6.03;2.13;;;;;;;;;;2047038;28;20039;-49
2024/03/14 00:04:58;;;;;;;4.75;2.17;;;;;;;;;;2048402;29;20034;-48
2024/03/14 00:06:01;;;;;;;4.03;2.20;;;;;;;;;;2048877;28;20035;-49
2024/03/14 00:07:02;;;;;;;4.53;2.17;;;;;;;;;;2043807;28;20055;-50
2024/03/14 00:08:03;;;;;;;3.72;2.05;;;;;;;;;;2047469;29;20379;-49
2024/03/14 00:09:08;;;;;;;4.82;1.98;;;;;;;;;;2049792;28;20066;-50
2024/03/14 00:10:09;;;;;;;3.45;2.08;;;;;;;;;;2053471;28;20633;-49
2024/03/14 00:11:11;;;;;;;4.80;2.45;;;;;;;;;;2048125;29;20030;-48
2024/03/14 00:12:12;;;;;;;3.47;2.10;;;;;;;;;;2046718;28;20035;-48
2024/03/14 00:13:13;;;;;;;5.38;2.13;;;;;;;;;;2048781;28;20014;-50
2024/03/14 00:14:15;;;;;;;4.30;2.17;;;;;;;;;;2047535;28;20034;-48
2024/03/14 00:15:16;;;;;;;6.88;2.42;;;;;;;;;;2044854;29;20035;-49
2024/03/14 00:16:17;;;;;;;3.25;2.22;;;;;;;;;;2054672;28;20027;-49
2024/03/14 00:17:19;;;;;;;5.90;2.15;;;;;;;;;;2049243;28;20030;-48
2024/03/14 00:18:20;;;;;;;3.83;1.75;;;;;;;;;;2047877;29;20038;-49
2024/03/14 00:19:22;;;;;;;4.60;2.38;;;;;;;;;;2048188;28;20043;-49
2024/03/14 00:20:23;;;;;;;3.80;2.00;;;;;;;;;;2042139;28;20027;-49
2024/03/14 00:21:26;;;;;;;3.80;1.83;;;;;;;;;;2047311;29;20058;-49
2024/03/14 00:22:27;;;;;;;4.88;2.08;;;;;;;;;;2043477;28;20019;-50
2024/03/14 00:23:30;;;;;;;3.88;2.33;;;;;;;;;;2047673;28;20027;-48
2024/03/14 00:24:32;;;;;;;6.78;2.50;;;;;;;;;;2045238;29;20387;-48
2024/03/14 00:25:33;;;;;;;5.50;1.73;;;;;;;;;;2047051;28;20525;-49
2024/03/14 00:26:35;;;;;;;5.05;1.80;;;;;;;;;;2048344;28;20086;-50
2024/03/14 00:27:38;;;;;;;6.28;2.22;;;;;;;;;;2045445;29;20481;-49
2024/03/14 00:28:39;;;;;;;4.18;2.42;;;;;;;;;;2054362;28;20466;-49
2024/03/14 00:29:41;;;;;;;4.80;1.92;;;;;;;;;;2053387;28;20030;-50
2024/03/14 00:30:43;;;;;;;5.65;1.63;;;;;;;;;;2042120;28;20027;-48
2024/03/14 00:31:44;;;;;;;3.15;1.88;;;;;;;;;;2043875;29;20065;-49
2024/03/14 00:32:45;;;;;;;3.72;2.15;;;;;;;;;;2043509;28;20495;-49
2024/03/14 00:33:47;;;;;;;3.92;2.08;;;;;;;;;;2043823;28;20110;-49
2024/03/14 00:34:48;;;;;;;3.67;1.65;;;;;;;;;;2043091;28;20020;-49
2024/03/14 00:35:50;;;;;;;3.72;1.95;;;;;;;;;;2047509;28;20335;-49
2024/03/14 00:36:52;;;;;;;4.97;1.65;;;;;;;;;;2048962;28;20023;-50
2024/03/14 00:37:53;;;;;;;4.25;2.10;;;;;;;;;;2050610;28;20082;-48
2024/03/14 00:38:54;;;;;;;3.40;1.70;;;;;;;;;;2047981;28;20111;-50
2024/03/14 00:39:56;;;;;;;3.58;1.67;;;;;;;;;;2046603;28;20015;-50
2024/03/14 00:40:59;;;;;;;3.33;1.83;;;;;;;;;;2052050;28;20029;-50
2024/03/14 00:42:03;;;;;;;2.83;1.70;;;;;;;;;;2054136;28;20043;-49
2024/03/14 00:43:05;;;;;;;3.75;1.88;;;;;;;;;;2043197;29;20530;-50
2024/03/14 00:44:06;;;;;;;4.68;1.90;;;;;;;;;;2047777;28;20035;-49
2024/03/14 00:45:09;;;;;;;4.93;2.17;;;;;;;;;;2049895;28;20493;-50
2024/03/14 00:46:14;;;;;;;3.33;1.98;;;;;;;;;;2049416;28;20751;-49
2024/03/14 00:47:15;;;;;;;3.55;1.70;;;;;;;;;;2046466;28;20022;-50
2024/03/14 00:48:17;;;;;;;4.55;2.35;;;;;;;;;;2044035;28;20553;-49
2024/03/14 00:49:18;;;;;;;4.43;1.77;;;;;;;;;;2048516;28;20063;-49
2024/03/14 00:50:19;;;;;;;5.25;2.20;;;;;;;;;;2047040;28;20061;-49
2024/03/14 00:51:21;;;;;;;5.18;2.33;;;;;;;;;;2050320;28;20035;-49
2024/03/14 00:52:22;;;;;;;4.38;2.22;;;;;;;;;;2055216;28;20014;-49
2024/03/14 00:53:23;;;;;;;4.65;2.13;;;;;;;;;;2046926;29;20408;-49
2024/03/14 00:54:25;;;;;;;4.47;2.10;;;;;;;;;;2042927;29;20442;-49
2024/03/14 00:55:26;;;;;;;4.20;1.65;;;;;;;;;;2044735;28;20027;-48
2024/03/14 00:56:27;;;;;;;4.65;1.98;;;;;;;;;;2043221;29;20019;-49
2024/03/14 00:57:28;;;;;;;3.58;2.05;;;;;;;;;;2047412;28;20023;-49
2024/03/14 00:58:30;;;;;;;6.65;2.38;;;;;;;;;;2048492;28;20019;-49
2024/03/14 00:59:32;;;;;;;4.65;1.92;;;;;;;;;;2042701;28;20027;-49
2024/03/14 01:00:33;;;;;;;3.65;1.77;;;;;;;;;;2047901;28;20066;-49
2024/03/14 01:01:36;;;;;;;3.08;2.10;;;;;;;;;;2047541;28;20046;-48
2024/03/14 01:02:37;;;;;;;6.07;1.63;;;;;;;;;;2043798;28;20027;-48
2024/03/14 01:03:38;;;;;;;7.40;1.92;;;;;;;;;;2045876;28;20035;-49
2024/03/14 01:04:40;;;;;;;3.80;2.03;;;;;;;;;;2050595;28;20019;-50
2024/03/14 01:05:41;;;;;;;4.70;2.20;;;;;;;;;;2048078;28;20064;-48
2024/03/14 01:06:42;;;;;;;2.70;1.90;;;;;;;;;;2043822;29;20019;-49
2024/03/14 01:07:48;;;;;;;3.90;2.05;;;;;;;;;;2045058;28;20028;-49
2024/03/14 01:08:49;;;;;;;5.97;2.00;;;;;;;;;;2044248;28;20107;-50
2024/03/14 01:09:51;;;;;;;2.67;1.77;;;;;;;;;;2044707;28;20102;-50
2024/03/14 01:10:52;;;;;;;4.45;1.85;;;;;;;;;;2041623;29;20532;-49
2024/03/14 01:11:53;;;;;;;2.42;1.60;;;;;;;;;;2046546;29;20114;-49
2024/03/14 01:12:55;;;;;;;5.00;2.10;;;;;;;;;;2045042;29;20027;-50
2024/03/14 01:13:56;;;;;;;5.82;2.30;;;;;;;;;;2048235;28;20031;-50
2024/03/14 01:14:58;;;;;;;5.35;2.35;;;;;;;;;;2044057;29;20073;-48
2024/03/14 01:15:59;;;;;;;3.38;2.08;;;;;;;;;;2044908;28;20024;-49
2024/03/14 01:17:03;;;;;;;5.45;2.38;;;;;;;;;;2047864;28;20058;-49
2024/03/14 01:18:05;;;;;;;4.32;2.20;;;;;;;;;;2044028;28;20411;-49
2024/03/14 01:19:07;;;;;;;2.67;1.60;;;;;;;;;;2046740;29;20027;-48
2024/03/14 01:20:10;;;;;;;4.22;2.00;;;;;;;;;;2048360;28;20344;-50
2024/03/14 01:21:11;;;;;;;3.80;1.90;;;;;;;;;;2044800;28;20476;-50
2024/03/14 01:22:13;;;;;;;5.45;1.95;;;;;;;;;;2048081;29;20402;-49
2024/03/14 01:23:14;;;;;;;3.17;2.03;;;;;;;;;;2044099;28;20034;-50
2024/03/14 01:24:15;;;;;;;3.85;1.90;;;;;;;;;;2044873;28;20098;-48
2024/03/14 01:25:17;;;;;;;4.68;2.10;;;;;;;;;;2040767;29;20020;-49
2024/03/14 01:26:20;;;;;;;7.25;1.98;;;;;;;;;;2043520;28;20023;-49
2024/03/14 01:27:21;;;;;;;4.45;2.08;;;;;;;;;;2042851;29;20037;-49
2024/03/14 01:28:22;;;;;;;3.10;1.92;;;;;;;;;;2043012;29;20148;-49
2024/03/14 01:29:27;;;;;;;5.72;2.50;;;;;;;;;;2045419;28;20023;-48
2024/03/14 01:30:29;;;;;;;4.00;2.40;;;;;;;;;;2044167;28;20490;-49
2024/03/14 01:31:32;;;;;;;4.60;2.08;;;;;;;;;;2046535;28;20067;-50
2024/03/14 01:32:34;;;;;;;5.75;2.03;;;;;;;;;;2042996;29;20023;-49
2024/03/14 01:33:35;;;;;;;3.33;1.83;;;;;;;;;;2044537;29;20460;-50
2024/03/14 01:34:36;;;;;;;4.50;2.28;;;;;;;;;;2043346;29;20026;-47
2024/03/14 01:35:38;;;;;;;4.53;2.10;;;;;;;;;;2044393;28;20023;-48
2024/03/14 01:36:39;;;;;;;3.85;2.17;;;;;;;;;;2047585;29;20103;-48
2024/03/14 01:37:41;;;;;;;7.50;2.58;;;;;;;;;;2047442;28;20023;-48
2024/03/14 01:38:42;;;;;;;7.03;2.40;;;;;;;;;;2047933;28;20020;-48
2024/03/14 01:39:43;;;;;;;3.70;2.08;;;;;;;;;;2039651;29;20100;-47
2024/03/14 01:40:45;;;;;;;3.67;2.25;;;;;;;;;;2047591;29;20031;-49
2024/03/14 01:41:48;;;;;;;3.80;2.10;;;;;;;;;;2048177;29;20098;-48
2024/03/14 01:42:54;;;;;;;5.90;2.47;;;;;;;;;;2045455;29;20107;-52
2024/03/14 01:43:58;;;;;;;5.47;2.22;;;;;;;;;;2048169;28;20419;-51
2024/03/14 01:45:01;;;;;;;4.47;2.40;;;;;;;;;;2043452;28;20387;-55
2024/03/14 01:46:02;;;;;;;5.43;2.33;;;;;;;;;;2041355;29;20070;-52
2024/03/14 01:47:05;;;;;;;4.63;2.15;;;;;;;;;;2044440;29;20026;-52
2024/03/14 01:48:06;;;;;;;4.97;2.42;;;;;;;;;;2045626;28;20572;-54
2024/03/14 01:49:08;;;;;;;4.07;2.28;;;;;;;;;;2047138;28;20031;-53
2024/03/14 01:50:11;;;;;;;3.17;1.90;;;;;;;;;;2043822;28;20053;-54
2024/03/14 01:51:12;;;;;;;3.55;1.67;;;;;;;;;;2045980;29;20030;-54
2024/03/14 01:52:13;;;;;;;3.55;2.22;;;;;;;;;;2045028;28;20522;-52
2024/03/14 01:53:15;;;;;;;5.60;2.30;;;;;;;;;;2044563;28;20389;-52
2024/03/14 01:54:16;;;;;;;3.42;2.30;;;;;;;;;;2044849;28;20532;-52
2024/03/14 01:55:19;;;;;;;5.63;2.22;;;;;;;;;;2044238;28;20031;-51
2024/03/14 01:56:23;;;;;;;5.60;2.25;;;;;;;;;;2042837;29;20103;-53
2024/03/14 01:57:25;;;;;;;5.22;2.47;;;;;;;;;;2043692;29;20027;-53
2024/03/14 01:58:26;;;;;;;4.40;2.47;;;;;;;;;;2047518;28;20031;-50
2024/03/14 01:59:28;;;;;;;4.35;2.42;;;;;;;;;;2045676;29;20102;-50
2024/03/14 02:00:35;;;;;;;3.20;1.95;;;;;;;;;;2041797;28;20039;-53
2024/03/14 02:01:36;;;;;;;4.13;2.45;;;;;;;;;;2036131;29;20032;-52
2024/03/14 02:02:38;;;;;;;5.45;2.55;;;;;;;;;;2038039;29;20022;-51
2024/03/14 02:03:40;;;;;;;6.75;2.35;;;;;;;;;;2045102;28;20023;-49
2024/03/14 02:04:47;;;;;;;3.95;2.22;;;;;;;;;;2043360;28;20127;-47
2024/03/14 02:05:53;;;;;;;4.38;2.10;;;;;;;;;;2046814;28;20459;-49
2024/03/14 02:07:14;;;;;;;4.03;2.45;;;;;;;;;;2044585;29;20028;-48
2024/03/14 02:08:15;;;;;;;4.97;2.30;;;;;;;;;;2046725;28;20024;-48
2024/03/14 02:09:22;;;;;;;4.60;2.08;;;;;;;;;;2047744;28;20027;-49
2024/03/14 02:10:26;;;;;;;4.32;2.17;;;;;;;;;;2042585;28;20113;-48
2024/03/14 02:11:27;;;;;;;8.63;2.75;;;;;;;;;;2043613;29;20031;-48
2024/03/14 02:12:28;;;;;;;6.45;2.53;;;;;;;;;;2042892;28;20023;-48
2024/03/14 02:13:30;;;;;;;4.55;2.15;;;;;;;;;;2046335;29;20043;-48
2024/03/14 02:14:31;;;;;;;4.50;1.88;;;;;;;;;;2046873;29;20031;-48
2024/03/14 02:15:33;;;;;;;4.60;2.30;;;;;;;;;;2047305;29;20533;-53
2024/03/14 02:16:35;;;;;;;7.38;2.47;;;;;;;;;;2042287;28;20023;-52
2024/03/14 02:17:36;;;;;;;4.95;2.08;;;;;;;;;;2044293;28;20110;-53
2024/03/14 02:18:37;;;;;;;6.90;2.55;;;;;;;;;;2035534;29;20028;-51
2024/03/14 02:19:39;;;;;;;5.88;2.30;;;;;;;;;;2044481;28;20032;-52
2024/03/14 02:20:40;;;;;;;4.70;2.40;;;;;;;;;;2045618;29;20038;-54
2024/03/14 02:21:41;;;;;;;4.10;2.15;;;;;;;;;;2041104;29;20050;-47
2024/03/14 02:22:44;;;;;;;4.38;2.05;;;;;;;;;;2045622;29;20122;-47
2024/03/14 02:23:45;;;;;;;7.82;2.78;;;;;;;;;;2046586;28;20035;-51
2024/03/14 02:24:47;;;;;;;5.40;2.70;;;;;;;;;;2044518;28;20466;-52
2024/03/14 02:25:48;;;;;;;3.42;2.45;;;;;;;;;;2046050;29;20031;-52
2024/03/14 02:26:50;;;;;;;4.10;2.28;;;;;;;;;;2052247;28;20043;-53
2024/03/14 02:27:51;;;;;;;3.72;1.90;;;;;;;;;;2051935;28;20043;-53
2024/03/14 02:28:53;;;;;;;6.07;2.35;;;;;;;;;;2043389;28;20369;-53
2024/03/14 02:29:54;;;;;;;3.97;1.83;;;;;;;;;;2044439;28;20407;-51
2024/03/14 02:30:56;;;;;;;4.80;2.15;;;;;;;;;;2046989;28;20027;-52
2024/03/14 02:31:57;;;;;;;3.63;2.00;;;;;;;;;;2042752;28;20077;-54
2024/03/14 02:32:58;;;;;;;3.90;1.80;;;;;;;;;;2045598;28;20035;-49
2024/03/14 02:33:59;;;;;;;5.35;2.03;;;;;;;;;;2046940;29;20127;-49
2024/03/14 02:35:02;;;;;;;4.07;2.28;;;;;;;;;;2045384;29;20375;-49
2024/03/14 02:36:05;;;;;;;4.20;1.80;;;;;;;;;;2042736;29;20360;-49
2024/03/14 02:37:07;;;;;;;3.90;2.05;;;;;;;;;;2047269;28;20058;-49
2024/03/14 02:38:09;;;;;;;5.43;1.85;;;;;;;;;;2047324;29;20051;-49
2024/03/14 02:39:10;;;;;;;3.38;1.80;;;;;;;;;;2041711;29;20110;-49
2024/03/14 02:40:12;;;;;;;2.33;1.80;;;;;;;;;;2041685;29;20028;-48
2024/03/14 02:41:13;;;;;;;4.85;2.33;;;;;;;;;;2047376;28;20110;-49
2024/03/14 02:42:15;;;;;;;7.05;1.70;;;;;;;;;;2046940;28;20554;-49
2024/03/14 02:43:16;;;;;;;5.20;2.10;;;;;;;;;;2047751;28;20035;-49
2024/03/14 02:44:18;;;;;;;6.53;2.10;;;;;;;;;;2048167;28;20077;-48
2024/03/14 02:45:20;;;;;;;4.18;1.83;;;;;;;;;;2048168;28;20046;-49
2024/03/14 02:46:21;;;;;;;3.53;2.08;;;;;;;;;;2053109;28;20023;-52
2024/03/14 02:47:23;;;;;;;3.80;2.30;;;;;;;;;;2051111;28;20026;-54
2024/03/14 02:48:25;;;;;;;3.47;2.03;;;;;;;;;;2046676;29;20023;-53
2024/03/14 02:49:27;;;;;;;6.20;2.08;;;;;;;;;;2047605;28;20020;-53
2024/03/14 02:50:28;;;;;;;5.95;2.00;;;;;;;;;;2049594;28;20426;-53
2024/03/14 02:51:29;;;;;;;5.22;2.28;;;;;;;;;;2046641;28;20073;-54
2024/03/14 02:52:31;;;;;;;4.97;2.25;;;;;;;;;;2045956;29;20031;-52
2024/03/14 02:53:32;;;;;;;5.57;2.28;;;;;;;;;;2048703;28;20035;-52
2024/03/14 02:54:33;;;;;;;3.60;2.40;;;;;;;;;;2045692;28;20022;-53
2024/03/14 02:55:34;;;;;;;3.20;1.95;;;;;;;;;;2049637;28;20129;-52
2024/03/14 02:56:36;;;;;;;5.28;2.15;;;;;;;;;;2048113;28;20491;-52
2024/03/14 02:57:37;;;;;;;3.50;2.20;;;;;;;;;;2047785;29;20040;-51
2024/03/14 02:58:38;;;;;;;5.22;2.00;;;;;;;;;;2055372;28;20019;-52
2024/03/14 02:59:40;;;;;;;3.35;2.20;;;;;;;;;;2054426;28;20398;-54
2024/03/14 03:00:42;;;;;;;5.40;2.90;;;;;;;;;;2043077;29;20024;-53
2024/03/14 03:01:43;;;;;;;4.95;2.10;;;;;;;;;;2043406;29;20051;-50
2024/03/14 03:02:45;;;;;;;3.53;2.03;;;;;;;;;;2045954;28;20030;-52
2024/03/14 03:03:46;;;;;;;3.72;2.33;;;;;;;;;;2046607;28;20569;-52
2024/03/14 03:04:48;;;;;;;4.32;1.83;;;;;;;;;;2046916;29;20031;-53
2024/03/14 03:05:50;;;;;;;3.67;2.10;;;;;;;;;;2043093;28;20058;-53
2024/03/14 03:06:55;;;;;;;2.97;1.83;;;;;;;;;;2046437;29;20107;-50
2024/03/14 03:07:57;;;;;;;3.25;1.88;;;;;;;;;;2044909;29;20027;-54
2024/03/14 03:08:58;;;;;;;5.68;2.55;;;;;;;;;;2045143;28;20032;-53
2024/03/14 03:10:00;;;;;;;3.38;2.05;;;;;;;;;;2048501;29;20055;-53
2024/03/14 03:11:01;;;;;;;4.55;2.00;;;;;;;;;;2048605;28;20027;-52
2024/03/14 03:12:02;;;;;;;4.18;2.08;;;;;;;;;;2049748;29;20106;-53
2024/03/14 03:13:05;;;;;;;2.83;2.00;;;;;;;;;;2045740;28;20317;-52
2024/03/14 03:14:07;;;;;;;5.20;2.05;;;;;;;;;;2045076;29;20032;-52
2024/03/14 03:15:09;;;;;;;4.78;2.15;;;;;;;;;;2045314;28;20074;-52
2024/03/14 03:16:13;;;;;;;4.03;2.13;;;;;;;;;;2044216;29;20024;-49
2024/03/14 03:17:16;;;;;;;4.60;2.22;;;;;;;;;;2053234;28;20022;-48
2024/03/14 03:18:18;;;;;;;3.22;1.98;;;;;;;;;;2052831;28;20058;-49
2024/03/14 03:19:19;;;;;;;3.30;1.95;;;;;;;;;;2044225;28;20467;-48
2024/03/14 03:20:20;;;;;;;2.63;1.70;;;;;;;;;;2048783;28;20027;-48
2024/03/14 03:21:23;;;;;;;3.25;1.90;;;;;;;;;;2053919;28;20062;-49
2024/03/14 03:22:30;;;;;;;5.07;2.30;;;;;;;;;;2055866;28;20090;-48
2024/03/14 03:23:33;;;;;;;3.33;2.15;;;;;;;;;;2043971;29;20442;-52
2024/03/14 03:24:34;;;;;;;5.90;2.00;;;;;;;;;;2045215;29;20067;-53
2024/03/14 03:25:36;;;;;;;3.47;1.92;;;;;;;;;;2048563;28;20031;-53
2024/03/14 03:26:37;;;;;;;5.18;2.45;;;;;;;;;;2050771;28;20088;-52
2024/03/14 03:27:40;;;;;;;4.00;2.05;;;;;;;;;;2046434;29;20023;-53
2024/03/14 03:28:41;;;;;;;4.13;1.98;;;;;;;;;;2047993;28;20026;-54
2024/03/14 03:29:43;;;;;;;3.78;2.05;;;;;;;;;;2043546;29;20491;-48
2024/03/14 03:30:45;;;;;;;4.43;2.33;;;;;;;;;;2048486;28;20019;-53
2024/03/14 03:31:46;;;;;;;4.82;1.90;;;;;;;;;;2046536;29;20145;-54
2024/03/14 03:32:47;;;;;;;4.18;2.10;;;;;;;;;;2046317;29;20106;-53
2024/03/14 03:33:49;;;;;;;4.25;2.15;;;;;;;;;;2048408;28;20414;-51
2024/03/14 03:34:50;;;;;;;4.45;2.53;;;;;;;;;;2047475;28;20020;-52
2024/03/14 03:35:51;;;;;;;2.88;2.00;;;;;;;;;;2048279;28;20154;-53
2024/03/14 03:36:53;;;;;;;4.25;2.08;;;;;;;;;;2046667;28;20114;-53
2024/03/14 03:37:57;;;;;;;5.13;2.22;;;;;;;;;;2045233;28;20427;-51
2024/03/14 03:39:00;;;;;;;4.78;2.25;;;;;;;;;;2046453;28;20507;-54
2024/03/14 03:40:01;;;;;;;4.65;2.38;;;;;;;;;;2045905;28;20036;-54
2024/03/14 03:41:03;;;;;;;4.30;2.22;;;;;;;;;;2045618;29;20022;-54
2024/03/14 03:42:06;;;;;;;3.50;1.95;;;;;;;;;;2041569;29;20071;-52
2024/03/14 03:43:09;;;;;;;4.20;2.00;;;;;;;;;;2042578;28;20038;-52
2024/03/14 03:44:10;;;;;;;3.67;1.88;;;;;;;;;;2042019;29;20574;-54
2024/03/14 03:45:15;;;;;;;4.03;2.20;;;;;;;;;;2043526;29;20031;-48
2024/03/14 03:46:16;;;;;;;4.40;2.35;;;;;;;;;;2045371;29;20040;-52
2024/03/14 03:47:18;;;;;;;3.75;2.00;;;;;;;;;;2043497;29;20024;-52
2024/03/14 03:48:19;;;;;;;2.60;1.70;;;;;;;;;;2048786;28;20039;-53
2024/03/14 03:49:21;;;;;;;4.43;2.30;;;;;;;;;;2048447;28;20027;-54
2024/03/14 03:50:23;;;;;;;3.75;2.10;;;;;;;;;;2039062;29;20023;-53
2024/03/14 03:51:25;;;;;;;3.58;2.08;;;;;;;;;;2045037;29;20028;-51
2024/03/14 03:52:26;;;;;;;3.45;1.80;;;;;;;;;;2043191;29;20020;-53
2024/03/14 03:53:27;;;;;;;4.78;2.17;;;;;;;;;;2042894;28;20070;-53
2024/03/14 03:54:29;;;;;;;4.95;2.00;;;;;;;;;;2043878;28;20043;-54
2024/03/14 03:55:32;;;;;;;3.00;1.98;;;;;;;;;;2045530;29;20074;-53
2024/03/14 03:56:33;;;;;;;5.88;2.13;;;;;;;;;;2048040;28;20015;-52
2024/03/14 03:57:35;;;;;;;3.08;1.90;;;;;;;;;;2048210;29;20019;-50
2024/03/14 03:58:36;;;;;;;2.78;2.03;;;;;;;;;;2045804;28;20390;-54
2024/03/14 03:59:37;;;;;;;4.60;2.13;;;;;;;;;;2048405;28;20026;-52
2024/03/14 04:00:44;;;;;;;5.65;1.88;;;;;;;;;;2047846;28;20050;-54
2024/03/14 04:01:46;;;;;;;3.92;1.83;;;;;;;;;;2046679;28;20024;-51
2024/03/14 04:02:47;;;;;;;2.60;1.70;;;;;;;;;;2047866;28;20056;-53
2024/03/14 04:03:51;;;;;;;3.05;1.80;;;;;;;;;;2047230;28;20031;-52
2024/03/14 04:04:52;;;;;;;4.93;2.45;;;;;;;;;;2047824;29;20407;-53
2024/03/14 04:05:55;;;;;;;3.45;1.70;;;;;;;;;;2045921;29;20031;-53
2024/03/14 04:06:57;;;;;;;4.60;2.17;;;;;;;;;;2043659;29;20031;-53
2024/03/14 04:07:59;;;;;;;3.65;2.10;;;;;;;;;;2043734;29;20076;-52
2024/03/14 04:09:01;;;;;;;2.90;1.83;;;;;;;;;;2048431;29;20023;-53
2024/03/14 04:10:06;;;;;;;2.90;2.08;;;;;;;;;;2047789;28;20533;-53
2024/03/14 04:11:07;;;;;;;3.10;1.70;;;;;;;;;;2046154;28;20043;-54
2024/03/14 04:12:08;;;;;;;3.97;1.90;;;;;;;;;;2042087;29;20119;-52
2024/03/14 04:13:10;;;;;;;3.28;2.13;;;;;;;;;;2046834;28;20034;-53
2024/03/14 04:14:11;;;;;;;2.42;1.73;;;;;;;;;;2046038;28;20410;-53
2024/03/14 04:15:13;;;;;;;4.30;1.92;;;;;;;;;;2050590;28;20039;-54
2024/03/14 04:16:15;;;;;;;3.83;2.20;;;;;;;;;;2052810;28;20059;-50
2024/03/14 04:17:18;;;;;;;4.25;2.08;;;;;;;;;;2041836;29;20107;-52
2024/03/14 04:18:19;;;;;;;3.45;1.60;;;;;;;;;;2043112;29;20056;-54
2024/03/14 04:19:21;;;;;;;2.95;1.80;;;;;;;;;;2041891;29;20012;-53
2024/03/14 04:20:29;;;;;;;3.45;2.13;;;;;;;;;;2046133;29;20026;-53
2024/03/14 04:21:30;;;;;;;3.55;1.92;;;;;;;;;;2046349;28;20063;-53
2024/03/14 04:22:31;;;;;;;3.50;2.03;;;;;;;;;;2047396;29;20019;-53
2024/03/14 04:23:33;;;;;;;3.63;1.95;;;;;;;;;;2045757;28;20023;-54
2024/03/14 04:24:35;;;;;;;4.35;2.10;;;;;;;;;;2045466;29;20035;-51
2024/03/14 04:25:36;;;;;;;3.55;1.90;;;;;;;;;;2043624;28;20138;-48
2024/03/14 04:26:38;;;;;;;3.88;2.00;;;;;;;;;;2044436;29;20368;-53
2024/03/14 04:27:41;;;;;;;3.10;1.90;;;;;;;;;;2047793;28;20053;-53
2024/03/14 04:28:44;;;;;;;6.32;2.10;;;;;;;;;;2043549;29;20015;-52
2024/03/14 04:29:45;;;;;;;4.38;2.33;;;;;;;;;;2043436;29;20028;-52
2024/03/14 04:30:46;;;;;;;3.17;2.13;;;;;;;;;;2048619;28;20031;-52
2024/03/14 04:31:48;;;;;;;4.10;2.30;;;;;;;;;;2045881;28;20035;-50
2024/03/14 04:32:49;;;;;;;3.38;1.85;;;;;;;;;;2048326;29;20086;-52
2024/03/14 04:33:50;;;;;;;3.50;1.88;;;;;;;;;;2045710;28;20031;-53
2024/03/14 04:34:52;;;;;;;4.00;1.90;;;;;;;;;;2045567;28;20039;-52
2024/03/14 04:35:53;;;;;;;4.35;2.20;;;;;;;;;;2043243;28;20030;-53
2024/03/14 04:36:56;;;;;;;3.75;2.25;;;;;;;;;;2044335;29;20039;-51
2024/03/14 04:37:58;;;;;;;4.85;1.90;;;;;;;;;;2047180;28;20043;-51
2024/03/14 04:38:59;;;;;;;4.40;1.90;;;;;;;;;;2047436;29;20027;-53
2024/03/14 04:40:04;;;;;;;4.60;2.55;;;;;;;;;;2046033;28;20027;-54
2024/03/14 04:41:14;;;;;;;4.05;2.00;;;;;;;;;;2046863;29;20087;-50
2024/03/14 04:42:15;;;;;;;3.97;2.00;;;;;;;;;;2045493;28;20114;-52
2024/03/14 04:43:18;;;;;;;4.13;2.17;;;;;;;;;;2051685;28;20583;-51
2024/03/14 04:44:19;;;;;;;3.58;2.13;;;;;;;;;;2055633;28;20462;-52
2024/03/14 04:45:24;;;;;;;4.75;2.17;;;;;;;;;;2047042;28;20027;-52
2024/03/14 04:46:26;;;;;;;6.28;2.00;;;;;;;;;;2044488;28;20384;-50
2024/03/14 04:47:29;;;;;;;3.08;2.00;;;;;;;;;;2045865;28;20059;-52
2024/03/14 04:48:30;;;;;;;3.50;1.92;;;;;;;;;;2043268;28;20027;-52
2024/03/14 04:49:32;;;;;;;3.22;2.00;;;;;;;;;;2038170;29;20058;-53
2024/03/14 04:50:33;;;;;;;4.65;2.50;;;;;;;;;;2039396;29;20032;-51
2024/03/14 04:51:34;;;;;;;4.68;2.55;;;;;;;;;;2046216;28;20035;-51
2024/03/14 04:52:36;;;;;;;5.78;2.25;;;;;;;;;;2053918;28;20037;-53
2024/03/14 04:53:37;;;;;;;3.92;2.35;;;;;;;;;;2047856;28;20053;-50
2024/03/14 04:54:40;;;;;;;4.82;2.47;;;;;;;;;;2044215;28;20047;-48
2024/03/14 04:55:42;;;;;;;4.55;2.22;;;;;;;;;;2041218;29;20541;-51
2024/03/14 04:56:45;;;;;;;3.10;2.30;;;;;;;;;;2045760;28;20071;-52
2024/03/14 04:57:47;;;;;;;5.85;2.30;;;;;;;;;;2042151;29;20068;-52
2024/03/14 04:58:50;;;;;;;3.97;2.38;;;;;;;;;;2045787;28;20122;-53
2024/03/14 04:59:52;;;;;;;5.55;2.30;;;;;;;;;;2044381;28;20123;-51
2024/03/14 05:00:54;;;;;;;4.10;2.20;;;;;;;;;;2047779;28;20027;-52
2024/03/14 05:01:56;;;;;;;4.78;2.28;;;;;;;;;;2047656;28;20443;-48
2024/03/14 05:02:58;;;;;;;4.90;2.80;;;;;;;;;;2046485;28;20023;-49
2024/03/14 05:03:59;;;;;;;3.42;1.98;;;;;;;;;;2047546;28;20031;-48
2024/03/14 05:05:01;;;;;;;4.05;2.20;;;;;;;;;;2049406;28;20019;-50
2024/03/14 05:06:03;;;;;;;5.72;2.65;;;;;;;;;;2046323;28;20020;-48
2024/03/14 05:07:04;;;;;;;4.68;2.05;;;;;;;;;;2048062;29;20038;-49
2024/03/14 05:08:06;;;;;;;3.92;2.50;;;;;;;;;;2047004;28;20023;-49
2024/03/14 05:09:08;;;;;;;4.45;2.67;;;;;;;;;;2044582;29;20046;-49
2024/03/14 05:10:09;;;;;;;3.70;2.00;;;;;;;;;;2047170;28;20502;-49
2024/03/14 05:11:11;;;;;;;4.53;2.30;;;;;;;;;;2046870;28;20533;-50
2024/03/14 05:12:13;;;;;;;5.28;2.50;;;;;;;;;;2049260;28;20026;-49
2024/03/14 05:13:14;;;;;;;4.05;2.47;;;;;;;;;;2047082;29;20411;-49
2024/03/14 05:14:17;;;;;;;8.43;2.50;;;;;;;;;;2044176;28;20059;-49
2024/03/14 05:15:19;;;;;;;3.65;2.35;;;;;;;;;;2043497;29;20016;-49
2024/03/14 05:16:22;;;;;;;3.95;2.67;;;;;;;;;;2045614;28;20031;-48
2024/03/14 05:17:24;;;;;;;6.65;3.00;;;;;;;;;;2054957;28;20030;-48
2024/03/14 05:18:26;;;;;;;4.95;2.05;;;;;;;;;;2050819;28;20034;-49
2024/03/14 05:19:28;;;;;;;4.50;2.40;;;;;;;;;;2045624;28;20023;-48
2024/03/14 05:20:29;;;;;;;3.67;1.95;;;;;;;;;;2045864;29;20026;-48
2024/03/14 05:21:31;;;;;;;3.78;2.33;;;;;;;;;;2044913;29;20368;-48
2024/03/14 05:22:33;;;;;;;6.57;2.67;;;;;;;;;;2047515;29;20391;-48
2024/03/14 05:23:34;;;;;;;4.38;2.30;;;;;;;;;;2043519;29;20538;-49
2024/03/14 05:24:36;;;;;;;5.25;2.40;;;;;;;;;;2046530;28;20099;-49
2024/03/14 05:25:37;;;;;;;4.75;2.75;;;;;;;;;;2048577;28;20549;-49
2024/03/14 05:26:42;;;;;;;5.15;2.65;;;;;;;;;;2046300;28;20073;-50
2024/03/14 05:27:47;;;;;;;5.38;2.15;;;;;;;;;;2048254;28;20046;-49
2024/03/14 05:28:48;;;;;;;5.60;3.13;;;;;;;;;;2046330;29;20027;-50
2024/03/14 05:29:50;;;;;;;4.30;2.38;;;;;;;;;;2044660;29;20063;-49
2024/03/14 05:30:55;;;;;;;5.72;2.70;;;;;;;;;;2043688;29;20035;-49
2024/03/14 05:31:56;;;;;;;4.72;2.75;;;;;;;;;;2046690;28;20027;-49
2024/03/14 05:32:59;;;;;;;6.63;2.60;;;;;;;;;;2045934;28;20035;-50
2024/03/14 05:34:01;;;;;;;7.07;2.97;;;;;;;;;;2047456;28;20383;-49
2024/03/14 05:35:02;;;;;;;5.68;3.13;;;;;;;;;;2047309;28;20023;-47
2024/03/14 05:36:04;;;;;;;6.80;3.30;;;;;;;;;;2047800;28;20035;-50
2024/03/14 05:37:05;;;;;;;4.03;2.42;;;;;;;;;;2045563;28;20031;-50
2024/03/14 05:38:08;;;;;;;6.25;2.63;;;;;;;;;;2044919;28;20031;-50
2024/03/14 05:39:10;;;;;;;7.30;2.97;;;;;;;;;;2043439;28;20415;-49
2024/03/14 05:40:12;;;;;;;4.10;3.00;;;;;;;;;;2043826;29;20035;-48
2024/03/14 05:41:13;;;;;;;9.43;3.30;;;;;;;;;;2044792;28;20058;-48
2024/03/14 05:42:18;;;;;;;6.32;3.00;;;;;;;;;;2046529;29;20030;-49
2024/03/14 05:43:22;;;;;;;6.13;3.17;;;;;;;;;;2043987;28;20050;-50
2024/03/14 05:44:24;;;;;;;6.90;3.45;;;;;;;;;;2045757;28;20024;-49
2024/03/14 05:45:25;;;;;;;4.43;2.80;;;;;;;;;;2044120;28;20027;-54
2024/03/14 05:46:27;;;;;;;8.05;3.33;;;;;;;;;;2045572;29;20039;-49
2024/03/14 05:47:28;;;;;;;5.60;3.25;;;;;;;;;;2043130;29;20118;-49
2024/03/14 05:48:30;;;;;;;6.30;3.30;;;;;;;;;;2050973;28;20493;-49
2024/03/14 05:49:31;;;;;;;9.73;3.40;;;;;;;;;;2049513;28;20074;-49
2024/03/14 05:50:32;;;;;;;8.07;3.63;;;;;;;;;;2041928;28;20730;-49
2024/03/14 05:51:34;;;;;;;7.30;3.70;;;;;;;;;;2045345;28;20518;-48
2024/03/14 05:52:35;;;;;;;10.00;3.72;;;;;;;;;;2048241;29;20042;-48
2024/03/14 05:53:37;;;;;;;7.43;3.35;;;;;;;;;;2041101;29;20034;-49
2024/03/14 05:54:38;;;;;;;7.57;3.45;;;;;;;;;;2045807;28;20099;-54
2024/03/14 05:55:39;;;;;;;7.78;3.15;;;;;;;;;;2042098;29;20039;-52
2024/03/14 05:56:41;;;;;;;11.35;3.40;;;;;;;;;;2042376;28;20063;-53
2024/03/14 05:57:43;;;;;;;7.13;3.40;;;;;;;;;;2044083;28;20033;-52
2024/03/14 05:58:44;;;;;;;6.28;3.22;;;;;;;;;;2047495;29;20487;-54
2024/03/14 05:59:46;;;;;;;7.45;2.92;;;;;;;;;;2045734;28;20482;-52
2024/03/14 06:00:47;;;;;;;6.63;2.92;;;;;;;;;;2047680;29;20023;-53
2024/03/14 06:01:49;;;;;;;7.28;3.00;;;;;;;;;;2047084;28;20415;-53
2024/03/14 06:02:54;;;;;;;3.92;2.53;;;;;;;;;;2043188;28;20526;-52
2024/03/14 06:03:55;;;;;;;5.65;2.63;;;;;;;;;;2041931;29;20023;-52
2024/03/14 06:04:56;;;;;;;6.80;3.10;;;;;;;;;;2042510;28;20019;-53
2024/03/14 06:05:58;;;;;;;5.18;3.20;;;;;;;;;;2044427;29;20031;-54
2024/03/14 06:06:59;;;;;;;6.10;3.08;;;;;;;;;;2047218;28;20028;-50
2024/03/14 06:08:00;;;;;;;4.97;2.85;;;;;;;;;;2046908;29;20058;-53
2024/03/14 06:09:03;;;;;;;5.35;2.80;;;;;;;;;;2043872;29;20459;-53
2024/03/14 06:10:06;;;;;;;4.55;3.28;;;;;;;;;;2043482;28;20062;-52
2024/03/14 06:11:08;;;;;;;10.10;3.60;;;;;;;;;;2044638;29;20035;-53
2024/03/14 06:12:10;;;;;;;4.72;2.58;;;;;;;;;;2042708;29;20503;-50